createdAt,value
2017-09-07T00:00:04.712Z,12.1
2017-09-07T00:01:07.100Z,12.1
2017-09-07T00:02:09.493Z,12
2017-09-07T00:03:11.887Z,12
2017-09-07T00:04:14.285Z,12
2017-09-07T00:05:16.670Z,12
2017-09-07T00:06:19.063Z,12
2017-09-07T00:07:21.455Z,12
2017-09-07T00:08:23.855Z,12
2017-09-07T00:09:26.240Z,12
2017-09-07T00:10:28.633Z,11.9
2017-09-07T00:11:31.027Z,11.9
2017-09-07T00:12:33.760Z,11.9
2017-09-07T00:13:36.152Z,11.9
2017-09-07T00:14:38.545Z,11.9
2017-09-07T00:15:40.938Z,11.9
2017-09-07T00:16:43.332Z,11.8
2017-09-07T00:17:45.727Z,11.8
2017-09-07T00:18:48.122Z,11.8
2017-09-07T00:19:50.514Z,11.8
2017-09-07T00:20:52.905Z,11.8
2017-09-07T00:21:55.310Z,11.8
2017-09-07T00:22:57.704Z,11.8
2017-09-07T00:24:00.095Z,11.8
2017-09-07T00:25:02.837Z,11.8
2017-09-07T00:26:05.227Z,11.8
2017-09-07T00:27:07.618Z,11.8
2017-09-07T00:28:10.015Z,11.8
2017-09-07T00:29:12.408Z,11.8
2017-09-07T00:30:14.804Z,11.8
2017-09-07T00:31:17.190Z,11.8
2017-09-07T00:32:19.587Z,11.8
2017-09-07T00:33:21.978Z,11.8
2017-09-07T00:34:24.364Z,11.8
2017-09-07T00:35:26.760Z,11.8
2017-09-07T00:36:29.147Z,11.8
2017-09-07T00:37:31.545Z,11.8
2017-09-07T00:38:33.941Z,11.8
2017-09-07T00:39:36.325Z,11.8
2017-09-07T00:40:38.719Z,11.9
2017-09-07T00:41:41.110Z,11.9
2017-09-07T00:42:43.508Z,11.9
2017-09-07T00:43:45.897Z,11.9
2017-09-07T00:44:48.287Z,11.9
2017-09-07T00:45:50.681Z,11.9
2017-09-07T00:46:53.408Z,12
2017-09-07T00:47:55.800Z,11.9
2017-09-07T00:48:58.542Z,11.9
2017-09-07T00:50:00.923Z,12
2017-09-07T00:51:03.318Z,12
2017-09-07T00:52:05.709Z,12
2017-09-07T00:53:08.102Z,12
2017-09-07T00:54:10.491Z,12
2017-09-07T00:55:12.882Z,12
2017-09-07T00:56:15.261Z,12
2017-09-07T00:57:17.658Z,11.9
2017-09-07T00:58:20.049Z,12
2017-09-07T00:59:22.443Z,12
2017-09-07T01:00:24.832Z,12
2017-09-07T01:01:27.225Z,12
2017-09-07T01:02:29.623Z,11.9
2017-09-07T01:03:32.026Z,11.9
2017-09-07T01:04:34.405Z,11.9
2017-09-07T01:05:37.137Z,11.9
2017-09-07T01:06:39.524Z,12
2017-09-07T01:07:41.919Z,12
2017-09-07T01:08:44.304Z,11.9
2017-09-07T01:09:46.699Z,11.9
2017-09-07T01:10:49.086Z,11.9
2017-09-07T01:11:51.482Z,11.9
2017-09-07T01:12:53.879Z,12
2017-09-07T01:13:56.266Z,12
2017-09-07T01:14:58.650Z,11.9
2017-09-07T01:16:01.042Z,11.9
2017-09-07T01:17:03.430Z,11.9
2017-09-07T01:18:05.823Z,11.9
2017-09-07T01:19:08.220Z,11.9
2017-09-07T01:20:10.612Z,11.9
2017-09-07T01:21:13.003Z,11.9
2017-09-07T01:22:15.767Z,11.9
2017-09-07T01:23:18.153Z,11.9
2017-09-07T01:24:20.538Z,11.8
2017-09-07T01:25:22.928Z,11.9
2017-09-07T01:26:25.316Z,11.9
2017-09-07T01:27:27.719Z,11.9
2017-09-07T01:28:30.112Z,11.9
2017-09-07T01:29:32.489Z,11.9
2017-09-07T01:30:34.883Z,11.9
2017-09-07T01:31:37.270Z,11.9
2017-09-07T01:32:39.664Z,11.9
2017-09-07T01:33:42.061Z,11.9
2017-09-07T01:34:44.450Z,11.9
2017-09-07T01:35:46.839Z,11.9
2017-09-07T01:36:49.238Z,11.9
2017-09-07T01:37:51.630Z,11.9
2017-09-07T01:38:54.024Z,11.9
2017-09-07T01:39:56.420Z,11.9
2017-09-07T01:40:58.813Z,11.9
2017-09-07T01:42:01.203Z,12
2017-09-07T01:43:03.587Z,12
2017-09-07T01:44:05.990Z,11.9
2017-09-07T01:45:08.387Z,11.9
2017-09-07T01:46:10.774Z,11.9
2017-09-07T01:47:13.171Z,12
2017-09-07T01:48:15.572Z,12
2017-09-07T01:49:17.964Z,12
2017-09-07T01:50:20.357Z,12
2017-09-07T01:51:22.755Z,12
2017-09-07T01:52:25.138Z,12
2017-09-07T01:53:27.528Z,12
2017-09-07T01:54:29.920Z,12
2017-09-07T01:55:32.299Z,12
2017-09-07T01:56:34.724Z,12
2017-09-07T01:57:37.091Z,12
2017-09-07T01:58:39.481Z,12
2017-09-07T01:59:41.879Z,12
2017-09-07T02:00:44.265Z,12
2017-09-07T02:01:46.654Z,12
2017-09-07T02:02:49.059Z,12
2017-09-07T02:03:51.444Z,12
2017-09-07T02:04:53.840Z,12
2017-09-07T02:05:56.237Z,12
2017-09-07T02:06:58.626Z,12
2017-09-07T02:08:01.020Z,12
2017-09-07T02:09:03.417Z,11.9
2017-09-07T02:10:05.801Z,11.9
2017-09-07T02:11:08.191Z,12
2017-09-07T02:12:10.587Z,12
2017-09-07T02:13:12.974Z,12
2017-09-07T02:14:15.369Z,12
2017-09-07T02:15:17.763Z,12
2017-09-07T02:16:20.156Z,12
2017-09-07T02:17:22.549Z,12
2017-09-07T02:18:25.281Z,11.9
2017-09-07T02:19:27.666Z,11.9
2017-09-07T02:20:30.061Z,11.9
2017-09-07T02:21:32.459Z,12
2017-09-07T02:22:34.851Z,12
2017-09-07T02:23:37.240Z,11.9
2017-09-07T02:24:39.630Z,12
2017-09-07T02:25:42.024Z,11.9
2017-09-07T02:26:44.425Z,11.9
2017-09-07T02:27:46.809Z,11.9
2017-09-07T02:28:49.198Z,11.9
2017-09-07T02:29:51.586Z,11.9
2017-09-07T02:30:53.977Z,11.9
2017-09-07T02:31:56.372Z,11.9
2017-09-07T02:32:58.764Z,11.9
2017-09-07T02:34:01.157Z,11.8
2017-09-07T02:35:03.559Z,11.8
2017-09-07T02:36:05.952Z,11.9
2017-09-07T02:37:08.349Z,11.8
2017-09-07T02:38:10.737Z,11.8
2017-09-07T02:39:13.123Z,11.8
2017-09-07T02:40:15.519Z,11.8
2017-09-07T02:41:17.905Z,11.8
2017-09-07T02:42:20.303Z,11.8
2017-09-07T02:43:22.693Z,11.8
2017-09-07T02:44:25.084Z,11.8
2017-09-07T02:45:27.481Z,11.8
2017-09-07T02:46:29.863Z,11.8
2017-09-07T02:47:32.254Z,11.7
2017-09-07T02:48:34.646Z,11.7
2017-09-07T02:49:37.036Z,11.7
2017-09-07T02:50:39.429Z,11.7
2017-09-07T02:51:41.824Z,11.7
2017-09-07T02:52:44.217Z,11.7
2017-09-07T02:53:46.617Z,11.7
2017-09-07T02:54:49.006Z,11.7
2017-09-07T02:55:51.396Z,11.7
2017-09-07T02:56:53.791Z,11.7
2017-09-07T02:57:56.181Z,11.7
2017-09-07T02:58:58.570Z,11.7
2017-09-07T03:00:00.967Z,11.7
2017-09-07T03:01:03.355Z,11.6
2017-09-07T03:02:05.749Z,11.6
2017-09-07T03:03:08.484Z,11.6
2017-09-07T03:04:10.875Z,11.6
2017-09-07T03:05:13.259Z,11.6
2017-09-07T03:06:15.655Z,11.6
2017-09-07T03:07:18.039Z,11.5
2017-09-07T03:08:20.433Z,11.5
2017-09-07T03:09:22.825Z,11.5
2017-09-07T03:10:25.225Z,11.5
2017-09-07T03:11:27.601Z,11.5
2017-09-07T03:12:29.997Z,11.5
2017-09-07T03:13:32.390Z,11.5
2017-09-07T03:14:34.780Z,11.5
2017-09-07T03:15:37.169Z,11.4
2017-09-07T03:16:39.561Z,11.5
2017-09-07T03:17:41.949Z,11.5
2017-09-07T03:18:44.351Z,11.5
2017-09-07T03:19:46.743Z,11.5
2017-09-07T03:20:49.126Z,11.5
2017-09-07T03:21:51.525Z,11.4
2017-09-07T03:22:53.922Z,11.4
2017-09-07T03:23:56.313Z,11.4
2017-09-07T03:24:58.708Z,11.4
2017-09-07T03:26:01.090Z,11.4
2017-09-07T03:27:03.821Z,11.4
2017-09-07T03:28:06.888Z,11.4
2017-09-07T03:29:09.279Z,11.4
2017-09-07T03:30:11.668Z,11.4
2017-09-07T03:31:14.063Z,11.4
2017-09-07T03:32:16.458Z,11.4
2017-09-07T03:33:18.859Z,11.4
2017-09-07T03:34:21.247Z,11.4
2017-09-07T03:35:23.634Z,11.4
2017-09-07T03:36:26.027Z,11.4
2017-09-07T03:37:28.417Z,11.5
2017-09-07T03:38:30.812Z,11.5
2017-09-07T03:39:33.197Z,11.5
2017-09-07T03:40:35.577Z,11.5
2017-09-07T03:41:37.971Z,11.5
2017-09-07T03:42:40.360Z,11.6
2017-09-07T03:43:42.745Z,11.6
2017-09-07T03:44:45.150Z,11.6
2017-09-07T03:45:47.878Z,11.6
2017-09-07T03:46:50.263Z,11.6
2017-09-07T03:47:52.659Z,11.6
2017-09-07T03:48:55.055Z,11.6
2017-09-07T03:49:57.453Z,11.7
2017-09-07T03:51:00.185Z,11.7
2017-09-07T03:52:02.570Z,11.7
2017-09-07T03:53:04.962Z,11.7
2017-09-07T03:54:07.363Z,11.7
2017-09-07T03:55:10.103Z,11.7
2017-09-07T03:56:12.493Z,11.8
2017-09-07T03:57:14.888Z,11.8
2017-09-07T03:58:17.278Z,11.8
2017-09-07T03:59:19.683Z,11.8
2017-09-07T04:00:22.413Z,11.8
2017-09-07T04:01:24.800Z,11.8
2017-09-07T04:02:27.191Z,11.8
2017-09-07T04:03:29.583Z,11.8
2017-09-07T04:04:31.977Z,11.8
2017-09-07T04:05:34.709Z,11.8
2017-09-07T04:06:37.088Z,11.8
2017-09-07T04:07:39.484Z,11.9
2017-09-07T04:08:41.882Z,11.9
2017-09-07T04:09:44.284Z,11.9
2017-09-07T04:10:46.666Z,11.8
2017-09-07T04:11:49.063Z,11.9
2017-09-07T04:12:51.454Z,11.9
2017-09-07T04:13:53.851Z,11.8
2017-09-07T04:14:56.240Z,11.9
2017-09-07T04:15:58.662Z,11.8
2017-09-07T04:17:01.026Z,11.8
2017-09-07T04:18:03.416Z,11.9
2017-09-07T04:19:05.813Z,11.9
2017-09-07T04:20:08.205Z,11.8
2017-09-07T04:21:10.952Z,11.9
2017-09-07T04:22:13.344Z,11.9
2017-09-07T04:23:15.735Z,11.8
2017-09-07T04:24:18.123Z,11.8
2017-09-07T04:25:20.518Z,11.8
2017-09-07T04:26:22.918Z,11.9
2017-09-07T04:27:25.315Z,11.8
2017-09-07T04:28:27.704Z,11.8
2017-09-07T04:29:30.095Z,11.8
2017-09-07T04:30:32.493Z,11.8
2017-09-07T04:31:34.876Z,11.8
2017-09-07T04:32:37.624Z,11.9
2017-09-07T04:33:40.013Z,11.8
2017-09-07T04:34:42.408Z,11.8
2017-09-07T04:35:44.802Z,11.8
2017-09-07T04:36:47.190Z,11.9
2017-09-07T04:37:49.580Z,11.8
2017-09-07T04:38:51.980Z,11.8
2017-09-07T04:39:54.382Z,11.8
2017-09-07T04:40:56.770Z,11.8
2017-09-07T04:41:59.162Z,11.8
2017-09-07T04:43:01.552Z,11.8
2017-09-07T04:44:03.945Z,11.8
2017-09-07T04:45:06.341Z,11.7
2017-09-07T04:46:08.734Z,11.7
2017-09-07T04:47:11.121Z,11.7
2017-09-07T04:48:13.525Z,11.8
2017-09-07T04:49:15.916Z,11.8
2017-09-07T04:50:18.309Z,11.8
2017-09-07T04:51:20.699Z,11.7
2017-09-07T04:52:23.087Z,11.7
2017-09-07T04:53:25.483Z,11.7
2017-09-07T04:54:27.879Z,11.7
2017-09-07T04:55:30.271Z,11.7
2017-09-07T04:56:32.662Z,11.7
2017-09-07T04:57:35.051Z,11.7
2017-09-07T04:58:37.448Z,11.7
2017-09-07T04:59:39.840Z,11.7
2017-09-07T05:00:42.225Z,11.7
2017-09-07T05:01:44.621Z,11.7
2017-09-07T05:02:47.011Z,11.7
2017-09-07T05:03:49.399Z,11.6
2017-09-07T05:04:51.799Z,11.6
2017-09-07T05:05:54.522Z,11.6
2017-09-07T05:06:56.916Z,11.6
2017-09-07T05:07:59.323Z,11.6
2017-09-07T05:09:01.712Z,11.6
2017-09-07T05:10:04.778Z,11.6
2017-09-07T05:11:07.167Z,11.7
2017-09-07T05:12:09.561Z,11.7
2017-09-07T05:13:12.279Z,11.7
2017-09-07T05:14:14.677Z,11.7
2017-09-07T05:15:17.078Z,11.7
2017-09-07T05:16:19.467Z,11.7
2017-09-07T05:17:21.857Z,11.7
2017-09-07T05:18:24.247Z,11.7
2017-09-07T05:19:26.639Z,11.8
2017-09-07T05:20:29.034Z,11.8
2017-09-07T05:21:31.425Z,11.8
2017-09-07T05:22:33.810Z,11.8
2017-09-07T05:23:36.202Z,11.8
2017-09-07T05:24:38.600Z,11.9
2017-09-07T05:25:40.989Z,11.8
2017-09-07T05:26:43.379Z,11.9
2017-09-07T05:27:45.769Z,11.8
2017-09-07T05:28:48.162Z,11.9
2017-09-07T05:29:50.559Z,11.9
2017-09-07T05:30:52.950Z,11.9
2017-09-07T05:31:55.343Z,11.9
2017-09-07T05:32:57.736Z,11.9
2017-09-07T05:34:00.123Z,11.9
2017-09-07T05:35:02.520Z,11.9
2017-09-07T05:36:05.597Z,11.9
2017-09-07T05:37:07.993Z,11.9
2017-09-07T05:38:10.379Z,11.9
2017-09-07T05:39:12.786Z,11.9
2017-09-07T05:40:15.174Z,12
2017-09-07T05:41:17.566Z,12
2017-09-07T05:42:19.957Z,12
2017-09-07T05:43:22.356Z,12.1
2017-09-07T05:44:24.751Z,12.1
2017-09-07T05:45:27.153Z,12.1
2017-09-07T05:46:29.537Z,12.1
2017-09-07T05:47:31.931Z,12.1
2017-09-07T05:48:34.328Z,12.1
2017-09-07T05:49:37.053Z,12.2
2017-09-07T05:50:39.435Z,12.2
2017-09-07T05:51:41.830Z,12.2
2017-09-07T05:52:44.219Z,12.2
2017-09-07T05:53:46.611Z,12.2
2017-09-07T05:54:49.000Z,12.2
2017-09-07T05:55:51.389Z,12.2
2017-09-07T05:56:53.784Z,12.3
2017-09-07T05:57:56.189Z,12.3
2017-09-07T05:58:58.580Z,12.3
2017-09-07T06:00:00.974Z,12.3
2017-09-07T06:01:03.372Z,12.3
2017-09-07T06:02:05.760Z,12.3
2017-09-07T06:03:08.494Z,12.4
2017-09-07T06:04:10.885Z,12.4
2017-09-07T06:05:13.609Z,12.4
2017-09-07T06:06:16.357Z,12.4
2017-09-07T06:07:18.755Z,12.4
2017-09-07T06:08:21.489Z,12.4
2017-09-07T06:09:23.878Z,12.4
2017-09-07T06:10:26.278Z,12.4
2017-09-07T06:11:28.670Z,12.4
2017-09-07T06:12:31.064Z,12.4
2017-09-07T06:13:33.460Z,12.4
2017-09-07T06:14:35.845Z,12.4
2017-09-07T06:15:38.236Z,12.5
2017-09-07T06:16:41.001Z,12.5
2017-09-07T06:17:43.389Z,12.5
2017-09-07T06:18:45.782Z,12.5
2017-09-07T06:19:48.170Z,12.5
2017-09-07T06:20:50.569Z,12.6
2017-09-07T06:21:52.949Z,12.6
2017-09-07T06:22:55.353Z,12.6
2017-09-07T06:23:57.736Z,12.6
2017-09-07T06:25:00.136Z,12.6
2017-09-07T06:26:02.534Z,12.6
2017-09-07T06:27:04.934Z,12.7
2017-09-07T06:28:07.328Z,12.7
2017-09-07T06:29:09.720Z,12.7
2017-09-07T06:30:12.104Z,12.8
2017-09-07T06:31:14.511Z,12.7
2017-09-07T06:32:16.902Z,12.8
2017-09-07T06:33:19.300Z,12.9
2017-09-07T06:34:21.692Z,12.9
2017-09-07T06:35:24.090Z,13
2017-09-07T06:36:26.490Z,13
2017-09-07T06:37:28.888Z,13
2017-09-07T06:38:31.283Z,13
2017-09-07T06:39:33.682Z,13.1
2017-09-07T06:40:36.074Z,13.1
2017-09-07T06:41:38.469Z,13.2
2017-09-07T06:42:40.868Z,13.3
2017-09-07T06:43:43.266Z,13.3
2017-09-07T06:44:45.654Z,13.4
2017-09-07T06:45:48.054Z,13.4
2017-09-07T06:46:50.451Z,13.5
2017-09-07T06:47:52.854Z,13.5
2017-09-07T06:48:55.250Z,13.5
2017-09-07T06:49:57.648Z,13.6
2017-09-07T06:51:00.039Z,13.5
2017-09-07T06:52:02.438Z,13.6
2017-09-07T06:53:04.837Z,13.7
2017-09-07T06:54:07.228Z,13.7
2017-09-07T06:55:09.628Z,13.8
2017-09-07T06:56:12.016Z,13.8
2017-09-07T06:57:14.411Z,13.8
2017-09-07T06:58:16.810Z,13.8
2017-09-07T06:59:19.206Z,13.9
2017-09-07T07:00:21.604Z,13.9
2017-09-07T07:01:23.997Z,13.9
2017-09-07T07:02:26.388Z,14
2017-09-07T07:03:28.788Z,14.1
2017-09-07T07:04:31.190Z,14.1
2017-09-07T07:05:33.591Z,14.2
2017-09-07T07:06:35.986Z,14.2
2017-09-07T07:07:38.387Z,14.2
2017-09-07T07:08:40.786Z,14.2
2017-09-07T07:09:43.190Z,14.2
2017-09-07T07:10:45.585Z,14.3
2017-09-07T07:11:47.992Z,14.3
2017-09-07T07:12:50.385Z,14.3
2017-09-07T07:13:53.119Z,14.3
2017-09-07T07:14:55.521Z,14.3
2017-09-07T07:15:57.917Z,14.3
2017-09-07T07:17:00.316Z,14.4
2017-09-07T07:18:02.717Z,14.4
2017-09-07T07:19:05.101Z,14.4
2017-09-07T07:20:07.504Z,14.4
2017-09-07T07:21:09.899Z,14.5
2017-09-07T07:22:12.657Z,14.4
2017-09-07T07:23:15.060Z,14.4
2017-09-07T07:24:17.458Z,14.4
2017-09-07T07:25:19.851Z,14.5
2017-09-07T07:26:22.251Z,14.5
2017-09-07T07:27:24.647Z,14.6
2017-09-07T07:28:27.030Z,14.5
2017-09-07T07:29:29.440Z,14.5
2017-09-07T07:30:31.828Z,14.4
2017-09-07T07:31:34.226Z,14.4
2017-09-07T07:32:36.624Z,14.5
2017-09-07T07:33:39.021Z,14.5
2017-09-07T07:34:41.448Z,14.6
2017-09-07T07:35:43.835Z,14.6
2017-09-07T07:36:46.230Z,14.6
2017-09-07T07:37:48.622Z,14.6
2017-09-07T07:38:51.015Z,14.7
2017-09-07T07:39:53.418Z,14.7
2017-09-07T07:40:55.813Z,14.7
2017-09-07T07:41:58.206Z,14.7
2017-09-07T07:43:00.598Z,14.7
2017-09-07T07:44:02.989Z,14.7
2017-09-07T07:45:05.393Z,14.7
2017-09-07T07:46:07.794Z,14.9
2017-09-07T07:47:10.198Z,14.9
2017-09-07T07:48:12.597Z,14.9
2017-09-07T07:49:14.997Z,14.9
2017-09-07T07:50:17.389Z,14.9
2017-09-07T07:51:20.155Z,15
2017-09-07T07:52:22.543Z,15
2017-09-07T07:53:24.940Z,15.1
2017-09-07T07:54:27.358Z,15.1
2017-09-07T07:55:29.757Z,15.1
2017-09-07T07:56:32.154Z,15.2
2017-09-07T07:57:34.554Z,15.2
2017-09-07T07:58:36.947Z,15.1
2017-09-07T07:59:39.347Z,15.1
2017-09-07T08:00:41.749Z,15
2017-09-07T08:01:44.140Z,15
2017-09-07T08:02:46.541Z,15
2017-09-07T08:03:49.279Z,15
2017-09-07T08:04:51.679Z,15
2017-09-07T08:05:54.076Z,14.9
2017-09-07T08:06:56.477Z,14.9
2017-09-07T08:07:58.873Z,14.8
2017-09-07T08:09:01.264Z,14.7
2017-09-07T08:10:03.668Z,14.7
2017-09-07T08:11:06.070Z,14.7
2017-09-07T08:12:08.470Z,14.6
2017-09-07T08:13:10.865Z,14.6
2017-09-07T08:14:13.609Z,14.5
2017-09-07T08:15:16.007Z,14.4
2017-09-07T08:16:18.416Z,14.4
2017-09-07T08:17:20.815Z,14.4
2017-09-07T08:18:23.560Z,14.3
2017-09-07T08:19:25.957Z,14.3
2017-09-07T08:20:28.355Z,14.2
2017-09-07T08:21:30.751Z,14.3
2017-09-07T08:22:33.158Z,14.2
2017-09-07T08:23:35.594Z,14.2
2017-09-07T08:24:37.956Z,14.2
2017-09-07T08:25:40.372Z,14.3
2017-09-07T08:26:43.102Z,14.2
2017-09-07T08:27:45.496Z,14.2
2017-09-07T08:28:47.900Z,14.2
2017-09-07T08:29:50.296Z,14.2
2017-09-07T08:30:53.032Z,14.2
2017-09-07T08:31:55.430Z,14.2
2017-09-07T08:32:57.820Z,14.2
2017-09-07T08:34:00.217Z,14.2
2017-09-07T08:35:02.619Z,14.3
2017-09-07T08:36:05.019Z,14.3
2017-09-07T08:37:07.416Z,14.4
2017-09-07T08:38:09.815Z,14.4
2017-09-07T08:39:12.212Z,14.4
2017-09-07T08:40:14.605Z,14.4
2017-09-07T08:41:17.006Z,14.5
2017-09-07T08:42:19.394Z,14.6
2017-09-07T08:43:23.392Z,14.6
2017-09-07T08:44:25.791Z,14.7
2017-09-07T08:45:28.187Z,14.7
2017-09-07T08:46:30.580Z,14.8
2017-09-07T08:47:33.197Z,14.9
2017-09-07T08:48:35.588Z,14.9
2017-09-07T08:49:37.991Z,15
2017-09-07T08:50:40.387Z,15
2017-09-07T08:51:42.781Z,15
2017-09-07T08:52:45.206Z,15.1
2017-09-07T08:53:48.010Z,15.1
2017-09-07T08:54:50.413Z,15.2
2017-09-07T08:55:52.813Z,15.3
2017-09-07T08:57:07.951Z,15.3
2017-09-07T08:58:17.217Z,15.3
2017-09-07T08:59:19.617Z,15.3
2017-09-07T09:00:22.701Z,15.3
2017-09-07T09:01:25.094Z,15.3
2017-09-07T09:02:27.491Z,15.3
2017-09-07T09:03:31.538Z,15.4
2017-09-07T09:04:36.234Z,15.4
2017-09-07T09:05:47.776Z,15.5
2017-09-07T09:07:00.674Z,15.4
2017-09-07T09:08:08.380Z,15.5
2017-09-07T09:09:12.580Z,15.5
2017-09-07T09:10:14.981Z,15.5
2017-09-07T09:11:17.382Z,15.6
2017-09-07T09:12:19.797Z,15.7
2017-09-07T09:13:22.192Z,15.6
2017-09-07T09:14:27.817Z,15.6
2017-09-07T09:15:30.274Z,15.6
2017-09-07T09:16:32.689Z,15.6
2017-09-07T09:17:35.081Z,15.6
2017-09-07T09:18:37.488Z,15.7
2017-09-07T09:19:39.906Z,15.7
2017-09-07T09:20:42.303Z,15.6
2017-09-07T09:21:44.693Z,15.7
2017-09-07T09:22:47.093Z,15.7
2017-09-07T09:23:49.483Z,15.7
2017-09-07T09:24:51.885Z,15.6
2017-09-07T09:25:54.278Z,15.6
2017-09-07T09:26:57.032Z,15.7
2017-09-07T09:27:59.441Z,15.7
2017-09-07T09:29:01.841Z,15.7
2017-09-07T09:30:04.243Z,15.8
2017-09-07T09:31:06.978Z,15.7
2017-09-07T09:32:09.376Z,15.7
2017-09-07T09:33:11.784Z,15.7
2017-09-07T09:34:14.177Z,15.7
2017-09-07T09:35:16.575Z,15.8
2017-09-07T09:36:18.975Z,15.8
2017-09-07T09:37:25.591Z,15.8
2017-09-07T09:38:34.527Z,15.8
2017-09-07T09:39:36.921Z,15.8
2017-09-07T09:40:39.315Z,15.8
2017-09-07T09:41:41.721Z,15.9
2017-09-07T09:42:44.111Z,15.8
2017-09-07T09:43:46.519Z,15.8
2017-09-07T09:44:48.910Z,15.8
2017-09-07T09:45:51.409Z,15.8
2017-09-07T09:46:54.150Z,15.9
2017-09-07T09:47:56.542Z,16
2017-09-07T09:48:58.941Z,16
2017-09-07T09:50:01.676Z,16.1
2017-09-07T09:51:04.070Z,16.1
2017-09-07T09:52:06.473Z,16.2
2017-09-07T09:53:09.212Z,16.2
2017-09-07T09:54:11.605Z,16.3
2017-09-07T09:55:14.001Z,16.4
2017-09-07T09:56:16.410Z,16.5
2017-09-07T09:57:18.802Z,16.4
2017-09-07T09:58:21.207Z,16.4
2017-09-07T09:59:23.594Z,16.5
2017-09-07T10:00:26.338Z,16.5
2017-09-07T10:01:28.737Z,16.5
2017-09-07T10:02:31.137Z,16.5
2017-09-07T10:03:33.536Z,16.6
2017-09-07T10:04:35.941Z,16.7
2017-09-07T10:05:38.338Z,16.7
2017-09-07T10:06:40.726Z,16.7
2017-09-07T10:07:43.126Z,16.8
2017-09-07T10:08:45.540Z,16.9
2017-09-07T10:09:47.953Z,16.9
2017-09-07T10:10:50.346Z,17
2017-09-07T10:11:52.747Z,17.1
2017-09-07T10:12:55.150Z,17.2
2017-09-07T10:13:57.552Z,17.2
2017-09-07T10:14:59.954Z,17.2
2017-09-07T10:16:02.348Z,17.3
2017-09-07T10:17:04.747Z,17.4
2017-09-07T10:18:07.159Z,17.5
2017-09-07T10:19:09.557Z,17.4
2017-09-07T10:20:11.958Z,17.4
2017-09-07T10:21:14.352Z,17.4
2017-09-07T10:22:16.759Z,17.5
2017-09-07T10:23:19.165Z,17.5
2017-09-07T10:24:21.571Z,17.5
2017-09-07T10:25:23.959Z,17.5
2017-09-07T10:26:26.360Z,17.4
2017-09-07T10:27:28.764Z,17.4
2017-09-07T10:28:31.167Z,17.3
2017-09-07T10:29:33.570Z,17.3
2017-09-07T10:30:35.958Z,17.3
2017-09-07T10:31:38.365Z,17.4
2017-09-07T10:32:40.774Z,17.3
2017-09-07T10:33:43.178Z,17.1
2017-09-07T10:34:45.913Z,17.1
2017-09-07T10:35:48.310Z,17.2
2017-09-07T10:36:50.704Z,17.1
2017-09-07T10:37:53.108Z,17.1
2017-09-07T10:38:55.511Z,17.1
2017-09-07T10:39:57.907Z,17.2
2017-09-07T10:41:00.313Z,17.1
2017-09-07T10:42:02.727Z,17.1
2017-09-07T10:43:05.123Z,17.1
2017-09-07T10:44:07.533Z,17.1
2017-09-07T10:45:09.933Z,17.1
2017-09-07T10:46:12.332Z,17.3
2017-09-07T10:47:14.735Z,17.5
2017-09-07T10:48:17.138Z,17.7
2017-09-07T10:49:19.527Z,17.9
2017-09-07T10:50:21.937Z,18.1
2017-09-07T10:51:24.339Z,18.1
2017-09-07T10:52:26.739Z,18.1
2017-09-07T10:53:29.142Z,18.2
2017-09-07T10:54:31.535Z,18.3
2017-09-07T10:55:33.938Z,18.4
2017-09-07T10:56:36.349Z,18.6
2017-09-07T10:57:38.743Z,18.7
2017-09-07T10:58:41.152Z,18.8
2017-09-07T10:59:43.552Z,19
2017-09-07T11:00:45.949Z,19.1
2017-09-07T11:01:48.354Z,19.3
2017-09-07T11:02:50.757Z,19.6
2017-09-07T11:03:53.153Z,19.5
2017-09-07T11:04:55.559Z,19.5
2017-09-07T11:05:57.960Z,19.3
2017-09-07T11:07:00.367Z,19.4
2017-09-07T11:08:02.762Z,19.3
2017-09-07T11:09:05.172Z,19
2017-09-07T11:10:07.581Z,19
2017-09-07T11:11:09.987Z,19
2017-09-07T11:12:12.391Z,19.3
2017-09-07T11:13:14.799Z,19.2
2017-09-07T11:14:17.196Z,19.1
2017-09-07T11:15:19.609Z,19
2017-09-07T11:16:22.349Z,19.1
2017-09-07T11:17:24.748Z,19.1
2017-09-07T11:18:27.151Z,19
2017-09-07T11:19:29.896Z,18.9
2017-09-07T11:20:32.641Z,18.8
2017-09-07T11:21:35.050Z,18.6
2017-09-07T11:22:37.451Z,18.4
2017-09-07T11:23:39.853Z,18.4
2017-09-07T11:24:42.258Z,18.3
2017-09-07T11:25:45.004Z,18.3
2017-09-07T11:26:47.402Z,18.3
2017-09-07T11:27:49.808Z,18.3
2017-09-07T11:28:52.884Z,18.5
2017-09-07T11:29:55.290Z,18.9
2017-09-07T11:30:57.695Z,19.1
2017-09-07T11:32:00.440Z,19.1
2017-09-07T11:33:02.829Z,19.3
2017-09-07T11:34:05.238Z,19.2
2017-09-07T11:35:07.641Z,19.2
2017-09-07T11:36:10.381Z,19.5
2017-09-07T11:37:12.789Z,19.8
2017-09-07T11:38:15.192Z,20.1
2017-09-07T11:39:17.586Z,20.1
2017-09-07T11:40:19.995Z,20.1
2017-09-07T11:41:22.396Z,20.1
2017-09-07T11:42:24.802Z,20
2017-09-07T11:43:27.555Z,20
2017-09-07T11:44:29.964Z,20.2
2017-09-07T11:45:32.368Z,20.3
2017-09-07T11:46:34.780Z,20.2
2017-09-07T11:47:37.184Z,20
2017-09-07T11:48:39.584Z,20
2017-09-07T11:49:41.995Z,20.1
2017-09-07T11:50:44.400Z,20.3
2017-09-07T11:51:46.808Z,20.1
2017-09-07T11:52:49.215Z,19.9
2017-09-07T11:53:51.610Z,19.8
2017-09-07T11:54:54.022Z,19.7
2017-09-07T11:55:56.429Z,19.5
2017-09-07T11:56:58.838Z,19.3
2017-09-07T11:58:01.249Z,19.2
2017-09-07T11:59:04.076Z,19.2
2017-09-07T12:00:06.499Z,18.9
2017-09-07T12:01:08.910Z,18.9
2017-09-07T12:02:11.304Z,18.9
2017-09-07T12:03:13.709Z,19
2017-09-07T12:04:16.114Z,19.1
2017-09-07T12:05:18.532Z,19.2
2017-09-07T12:06:20.941Z,19.1
2017-09-07T12:07:23.353Z,19.2
2017-09-07T12:08:25.753Z,19.1
2017-09-07T12:09:28.158Z,19.1
2017-09-07T12:10:30.557Z,19
2017-09-07T12:11:32.966Z,18.9
2017-09-07T12:12:35.359Z,18.9
2017-09-07T12:13:37.768Z,18.7
2017-09-07T12:14:40.514Z,18.6
2017-09-07T12:15:42.920Z,18.5
2017-09-07T12:16:45.329Z,18.4
2017-09-07T12:17:47.722Z,18.3
2017-09-07T12:18:50.121Z,18.2
2017-09-07T12:19:52.538Z,18.2
2017-09-07T12:20:54.935Z,18.1
2017-09-07T12:21:57.340Z,18.1
2017-09-07T12:23:00.079Z,18
2017-09-07T12:24:02.474Z,18.1
2017-09-07T12:25:04.882Z,18.1
2017-09-07T12:26:07.295Z,18.1
2017-09-07T12:27:09.690Z,18.2
2017-09-07T12:28:12.094Z,18.4
2017-09-07T12:29:14.502Z,18.3
2017-09-07T12:30:16.903Z,18.3
2017-09-07T12:31:19.305Z,18.3
2017-09-07T12:32:21.703Z,18.4
2017-09-07T12:33:24.105Z,18.4
2017-09-07T12:34:26.502Z,18.3
2017-09-07T12:35:28.910Z,18.4
2017-09-07T12:36:31.321Z,18.5
2017-09-07T12:37:33.731Z,18.5
2017-09-07T12:38:36.125Z,18.6
2017-09-07T12:39:38.528Z,18.6
2017-09-07T12:40:41.275Z,18.7
2017-09-07T12:41:43.677Z,18.7
2017-09-07T12:42:46.080Z,18.7
2017-09-07T12:43:48.472Z,18.6
2017-09-07T12:44:51.213Z,18.6
2017-09-07T12:45:53.803Z,18.6
2017-09-07T12:46:56.346Z,18.4
2017-09-07T12:47:58.751Z,18.4
2017-09-07T12:49:01.162Z,18.3
2017-09-07T12:50:03.562Z,18.2
2017-09-07T12:51:05.963Z,18.2
2017-09-07T12:52:08.371Z,18.2
2017-09-07T12:53:10.762Z,18.1
2017-09-07T12:54:13.169Z,18.2
2017-09-07T12:55:15.577Z,18.2
2017-09-07T12:56:17.977Z,18.2
2017-09-07T12:57:20.377Z,18.3
2017-09-07T12:58:23.123Z,18.3
2017-09-07T12:59:25.526Z,18.4
2017-09-07T13:00:27.929Z,18.5
2017-09-07T13:01:30.331Z,18.5
2017-09-07T13:02:32.731Z,18.6
2017-09-07T13:03:35.130Z,18.7
2017-09-07T13:04:37.537Z,18.7
2017-09-07T13:05:40.633Z,18.7
2017-09-07T13:06:43.035Z,18.7
2017-09-07T13:07:45.436Z,18.7
2017-09-07T13:08:47.844Z,18.7
2017-09-07T13:09:50.240Z,18.8
2017-09-07T13:10:52.646Z,18.8
2017-09-07T13:11:55.387Z,18.8
2017-09-07T13:12:57.789Z,18.8
2017-09-07T13:14:00.185Z,18.8
2017-09-07T13:15:02.591Z,18.7
2017-09-07T13:16:04.996Z,18.9
2017-09-07T13:17:07.411Z,19
2017-09-07T13:18:09.801Z,19
2017-09-07T13:19:12.215Z,18.9
2017-09-07T13:20:14.617Z,19.2
2017-09-07T13:21:17.007Z,19.2
2017-09-07T13:22:19.409Z,19.1
2017-09-07T13:23:21.807Z,19.1
2017-09-07T13:24:24.552Z,19.1
2017-09-07T13:25:26.953Z,19
2017-09-07T13:26:29.349Z,19
2017-09-07T13:27:31.768Z,19.1
2017-09-07T13:28:34.182Z,19.1
2017-09-07T13:29:36.583Z,19.1
2017-09-07T13:30:38.991Z,19.1
2017-09-07T13:31:41.400Z,19.4
2017-09-07T13:32:43.806Z,19.5
2017-09-07T13:33:46.201Z,19.5
2017-09-07T13:34:48.612Z,19.6
2017-09-07T13:35:51.015Z,19.6
2017-09-07T13:36:53.413Z,19.7
2017-09-07T13:37:55.815Z,19.9
2017-09-07T13:38:58.223Z,19.8
2017-09-07T13:40:00.971Z,19.6
2017-09-07T13:41:03.381Z,19.6
2017-09-07T13:42:05.779Z,19.5
2017-09-07T13:43:08.186Z,19.4
2017-09-07T13:44:10.587Z,19.3
2017-09-07T13:45:12.989Z,19.2
2017-09-07T13:46:15.392Z,19.2
2017-09-07T13:47:17.798Z,19.1
2017-09-07T13:48:20.210Z,19.1
2017-09-07T13:49:25.327Z,19
2017-09-07T13:50:28.527Z,19.1
2017-09-07T13:51:30.938Z,19.1
2017-09-07T13:52:33.330Z,19.2
2017-09-07T13:53:35.739Z,19.4
2017-09-07T13:54:38.517Z,19.5
2017-09-07T13:55:40.922Z,19.5
2017-09-07T13:56:43.328Z,19.4
2017-09-07T13:57:45.726Z,19.4